sensor_id;sensor_type;location;lat;lon;timestamp;P1;durP1;ratioP1;P2;durP2;ratioP2
35462;SDS011;21578;47.892;9.970;2023-02-12T00:03:13;20.97;;;14.43;;
35462;SDS011;21578;47.892;9.970;2023-02-12T00:08:01;19.33;;;13.20;;
35462;SDS011;21578;47.892;9.970;2023-02-12T00:12:48;20.47;;;12.93;;
35462;SDS011;21578;47.892;9.970;2023-02-12T00:17:37;21.40;;;12.90;;
35462;SDS011;21578;47.892;9.970;2023-02-12T00:22:24;17.87;;;13.17;;
35462;SDS011;21578;47.892;9.970;2023-02-12T00:27:12;19.70;;;13.77;;
35462;SDS011;21578;47.892;9.970;2023-02-12T00:31:59;17.97;;;13.23;;
35462;SDS011;21578;47.892;9.970;2023-02-12T00:36:47;20.33;;;13.40;;
35462;SDS011;21578;47.892;9.970;2023-02-12T00:41:34;18.80;;;12.60;;
35462;SDS011;21578;47.892;9.970;2023-02-12T00:46:21;39.40;;;20.40;;
35462;SDS011;21578;47.892;9.970;2023-02-12T00:51:08;29.83;;;17.67;;
35462;SDS011;21578;47.892;9.970;2023-02-12T00:55:57;29.57;;;16.00;;
35462;SDS011;21578;47.892;9.970;2023-02-12T01:00:45;34.90;;;17.80;;
35462;SDS011;21578;47.892;9.970;2023-02-12T01:05:32;44.90;;;24.57;;
35462;SDS011;21578;47.892;9.970;2023-02-12T01:10:19;29.47;;;16.40;;
35462;SDS011;21578;47.892;9.970;2023-02-12T01:15:08;26.67;;;16.13;;
35462;SDS011;21578;47.892;9.970;2023-02-12T01:19:56;19.60;;;13.57;;
35462;SDS011;21578;47.892;9.970;2023-02-12T01:24:44;23.30;;;13.40;;
35462;SDS011;21578;47.892;9.970;2023-02-12T01:29:31;21.77;;;14.00;;
35462;SDS011;21578;47.892;9.970;2023-02-12T01:34:19;23.17;;;14.20;;
35462;SDS011;21578;47.892;9.970;2023-02-12T01:39:06;22.73;;;15.00;;
35462;SDS011;21578;47.892;9.970;2023-02-12T01:44:09;24.03;;;14.40;;
35462;SDS011;21578;47.892;9.970;2023-02-12T01:48:59;22.23;;;14.83;;
35462;SDS011;21578;47.892;9.970;2023-02-12T01:53:50;19.83;;;13.10;;
35462;SDS011;21578;47.892;9.970;2023-02-12T01:58:40;20.77;;;13.27;;
35462;SDS011;21578;47.892;9.970;2023-02-12T02:03:29;22.13;;;14.77;;
35462;SDS011;21578;47.892;9.970;2023-02-12T02:08:16;25.47;;;15.60;;
35462;SDS011;21578;47.892;9.970;2023-02-12T02:13:05;21.80;;;14.77;;
35462;SDS011;21578;47.892;9.970;2023-02-12T02:18:10;21.73;;;14.70;;
35462;SDS011;21578;47.892;9.970;2023-02-12T02:23:06;22.00;;;15.13;;
35462;SDS011;21578;47.892;9.970;2023-02-12T02:28:10;22.00;;;14.97;;
35462;SDS011;21578;47.892;9.970;2023-02-12T02:33:12;21.33;;;14.33;;
35462;SDS011;21578;47.892;9.970;2023-02-12T02:38:10;20.97;;;14.60;;
35462;SDS011;21578;47.892;9.970;2023-02-12T02:43:08;21.03;;;14.17;;
35462;SDS011;21578;47.892;9.970;2023-02-12T02:48:01;19.20;;;14.37;;
35462;SDS011;21578;47.892;9.970;2023-02-12T02:52:54;19.90;;;14.47;;
35462;SDS011;21578;47.892;9.970;2023-02-12T02:57:45;21.37;;;14.03;;
35462;SDS011;21578;47.892;9.970;2023-02-12T03:02:37;19.70;;;13.87;;
35462;SDS011;21578;47.892;9.970;2023-02-12T03:07:30;17.60;;;12.50;;
35462;SDS011;21578;47.892;9.970;2023-02-12T03:12:24;18.13;;;12.23;;
35462;SDS011;21578;47.892;9.970;2023-02-12T03:17:17;16.40;;;11.67;;
35462;SDS011;21578;47.892;9.970;2023-02-12T03:22:08;17.37;;;11.57;;
35462;SDS011;21578;47.892;9.970;2023-02-12T03:26:59;16.57;;;11.67;;
35462;SDS011;21578;47.892;9.970;2023-02-12T03:31:57;17.73;;;12.67;;
35462;SDS011;21578;47.892;9.970;2023-02-12T03:36:53;19.83;;;13.67;;
35462;SDS011;21578;47.892;9.970;2023-02-12T03:41:46;20.20;;;13.77;;
35462;SDS011;21578;47.892;9.970;2023-02-12T03:46:37;19.57;;;13.77;;
35462;SDS011;21578;47.892;9.970;2023-02-12T03:51:31;22.27;;;14.67;;
35462;SDS011;21578;47.892;9.970;2023-02-12T03:56:22;23.53;;;14.67;;
35462;SDS011;21578;47.892;9.970;2023-02-12T04:01:14;21.40;;;14.53;;
35462;SDS011;21578;47.892;9.970;2023-02-12T04:06:01;20.50;;;14.87;;
35462;SDS011;21578;47.892;9.970;2023-02-12T04:16:03;22.67;;;15.10;;
35462;SDS011;21578;47.892;9.970;2023-02-12T04:21:06;21.33;;;14.57;;
35462;SDS011;21578;47.892;9.970;2023-02-12T04:26:01;24.63;;;15.87;;
35462;SDS011;21578;47.892;9.970;2023-02-12T04:30:57;23.50;;;15.57;;
35462;SDS011;21578;47.892;9.970;2023-02-12T04:35:47;24.30;;;16.30;;
35462;SDS011;21578;47.892;9.970;2023-02-12T04:40:37;23.20;;;15.10;;
35462;SDS011;21578;47.892;9.970;2023-02-12T04:45:27;24.57;;;16.33;;
35462;SDS011;21578;47.892;9.970;2023-02-12T04:50:17;23.60;;;15.47;;
35462;SDS011;21578;47.892;9.970;2023-02-12T04:55:05;23.23;;;15.60;;
35462;SDS011;21578;47.892;9.970;2023-02-12T04:59:52;25.40;;;16.60;;
35462;SDS011;21578;47.892;9.970;2023-02-12T05:04:39;21.70;;;15.60;;
35462;SDS011;21578;47.892;9.970;2023-02-12T05:09:28;22.27;;;15.60;;
35462;SDS011;21578;47.892;9.970;2023-02-12T05:14:15;24.53;;;15.43;;
35462;SDS011;21578;47.892;9.970;2023-02-12T05:19:02;22.30;;;15.97;;
35462;SDS011;21578;47.892;9.970;2023-02-12T05:23:49;23.43;;;15.40;;
35462;SDS011;21578;47.892;9.970;2023-02-12T05:28:37;24.43;;;16.03;;
35462;SDS011;21578;47.892;9.970;2023-02-12T05:33:25;22.47;;;15.90;;
35462;SDS011;21578;47.892;9.970;2023-02-12T05:38:13;25.70;;;17.20;;
35462;SDS011;21578;47.892;9.970;2023-02-12T05:43:00;26.83;;;17.10;;
35462;SDS011;21578;47.892;9.970;2023-02-12T05:47:48;26.10;;;16.93;;
35462;SDS011;21578;47.892;9.970;2023-02-12T05:52:35;24.97;;;16.73;;
35462;SDS011;21578;47.892;9.970;2023-02-12T05:57:22;24.73;;;16.40;;
35462;SDS011;21578;47.892;9.970;2023-02-12T06:02:09;25.40;;;15.30;;
35462;SDS011;21578;47.892;9.970;2023-02-12T06:06:58;25.60;;;15.73;;
35462;SDS011;21578;47.892;9.970;2023-02-12T06:11:46;26.03;;;16.00;;
35462;SDS011;21578;47.892;9.970;2023-02-12T06:16:33;25.47;;;16.60;;
35462;SDS011;21578;47.892;9.970;2023-02-12T06:26:07;26.67;;;15.83;;
35462;SDS011;21578;47.892;9.970;2023-02-12T06:30:54;22.77;;;14.93;;
35462;SDS011;21578;47.892;9.970;2023-02-12T06:35:41;21.63;;;14.80;;
35462;SDS011;21578;47.892;9.970;2023-02-12T06:40:28;22.17;;;14.27;;
35462;SDS011;21578;47.892;9.970;2023-02-12T06:45:17;23.17;;;14.43;;
35462;SDS011;21578;47.892;9.970;2023-02-12T06:50:04;22.80;;;15.03;;
35462;SDS011;21578;47.892;9.970;2023-02-12T06:54:52;23.50;;;15.03;;
35462;SDS011;21578;47.892;9.970;2023-02-12T06:59:39;29.93;;;17.93;;
35462;SDS011;21578;47.892;9.970;2023-02-12T07:04:27;30.27;;;18.90;;
35462;SDS011;21578;47.892;9.970;2023-02-12T07:09:14;58.97;;;31.07;;
35462;SDS011;21578;47.892;9.970;2023-02-12T07:14:01;34.77;;;19.33;;
35462;SDS011;21578;47.892;9.970;2023-02-12T07:18:47;23.53;;;14.37;;
35462;SDS011;21578;47.892;9.970;2023-02-12T07:23:36;21.53;;;14.80;;
35462;SDS011;21578;47.892;9.970;2023-02-12T07:28:23;22.83;;;14.23;;
35462;SDS011;21578;47.892;9.970;2023-02-12T07:33:10;22.37;;;14.93;;
35462;SDS011;21578;47.892;9.970;2023-02-12T07:37:57;21.83;;;15.03;;
35462;SDS011;21578;47.892;9.970;2023-02-12T07:42:45;24.20;;;15.13;;
35462;SDS011;21578;47.892;9.970;2023-02-12T07:47:37;19.23;;;13.90;;
35462;SDS011;21578;47.892;9.970;2023-02-12T07:52:25;23.77;;;14.97;;
35462;SDS011;21578;47.892;9.970;2023-02-12T07:57:11;21.47;;;13.80;;
35462;SDS011;21578;47.892;9.970;2023-02-12T08:02:00;23.20;;;15.80;;
35462;SDS011;21578;47.892;9.970;2023-02-12T08:06:47;21.50;;;13.17;;
35462;SDS011;21578;47.892;9.970;2023-02-12T08:11:36;26.10;;;16.37;;
35462;SDS011;21578;47.892;9.970;2023-02-12T08:16:25;24.33;;;15.40;;
35462;SDS011;21578;47.892;9.970;2023-02-12T08:21:14;18.40;;;11.63;;
35462;SDS011;21578;47.892;9.970;2023-02-12T08:26:06;14.63;;;9.73;;
35462;SDS011;21578;47.892;9.970;2023-02-12T08:30:58;17.30;;;11.43;;
35462;SDS011;21578;47.892;9.970;2023-02-12T08:35:45;20.40;;;13.20;;
35462;SDS011;21578;47.892;9.970;2023-02-12T08:40:34;27.43;;;16.43;;
35462;SDS011;21578;47.892;9.970;2023-02-12T08:45:20;16.37;;;9.87;;
35462;SDS011;21578;47.892;9.970;2023-02-12T08:50:07;16.27;;;10.57;;
35462;SDS011;21578;47.892;9.970;2023-02-12T08:54:55;15.80;;;11.10;;
35462;SDS011;21578;47.892;9.970;2023-02-12T08:59:43;17.03;;;11.73;;
35462;SDS011;21578;47.892;9.970;2023-02-12T09:04:30;17.83;;;12.40;;
35462;SDS011;21578;47.892;9.970;2023-02-12T09:09:18;17.67;;;10.97;;
35462;SDS011;21578;47.892;9.970;2023-02-12T09:14:06;22.90;;;15.97;;
35462;SDS011;21578;47.892;9.970;2023-02-12T09:18:57;14.37;;;10.37;;
35462;SDS011;21578;47.892;9.970;2023-02-12T09:23:44;16.47;;;10.30;;
35462;SDS011;21578;47.892;9.970;2023-02-12T09:28:32;15.17;;;9.07;;
35462;SDS011;21578;47.892;9.970;2023-02-12T09:33:19;15.20;;;9.70;;
35462;SDS011;21578;47.892;9.970;2023-02-12T09:38:08;14.40;;;9.40;;
35462;SDS011;21578;47.892;9.970;2023-02-12T09:43:02;16.53;;;10.87;;
35462;SDS011;21578;47.892;9.970;2023-02-12T09:47:55;14.00;;;9.27;;
35462;SDS011;21578;47.892;9.970;2023-02-12T09:52:49;19.50;;;9.27;;
35462;SDS011;21578;47.892;9.970;2023-02-12T09:57:38;14.23;;;9.00;;
35462;SDS011;21578;47.892;9.970;2023-02-12T10:02:26;14.63;;;9.43;;
35462;SDS011;21578;47.892;9.970;2023-02-12T10:07:16;13.60;;;8.83;;
35462;SDS011;21578;47.892;9.970;2023-02-12T10:12:10;14.97;;;8.60;;
35462;SDS011;21578;47.892;9.970;2023-02-12T10:17:05;11.97;;;8.43;;
35462;SDS011;21578;47.892;9.970;2023-02-12T10:21:59;10.93;;;7.40;;
35462;SDS011;21578;47.892;9.970;2023-02-12T10:26:54;11.03;;;8.03;;
35462;SDS011;21578;47.892;9.970;2023-02-12T10:31:44;11.67;;;7.90;;
35462;SDS011;21578;47.892;9.970;2023-02-12T10:36:38;11.57;;;7.90;;
35462;SDS011;21578;47.892;9.970;2023-02-12T10:41:27;11.80;;;8.13;;
35462;SDS011;21578;47.892;9.970;2023-02-12T10:46:17;11.13;;;7.43;;
35462;SDS011;21578;47.892;9.970;2023-02-12T10:51:10;11.73;;;7.27;;
35462;SDS011;21578;47.892;9.970;2023-02-12T10:56:13;11.63;;;9.80;;
35462;SDS011;21578;47.892;9.970;2023-02-12T11:01:02;16.93;;;9.90;;
35462;SDS011;21578;47.892;9.970;2023-02-12T11:05:50;11.07;;;7.77;;
35462;SDS011;21578;47.892;9.970;2023-02-12T11:10:38;11.50;;;7.00;;
35462;SDS011;21578;47.892;9.970;2023-02-12T11:15:29;9.40;;;6.83;;
35462;SDS011;21578;47.892;9.970;2023-02-12T11:20:22;9.57;;;6.77;;
35462;SDS011;21578;47.892;9.970;2023-02-12T11:25:13;9.20;;;6.57;;
35462;SDS011;21578;47.892;9.970;2023-02-12T11:30:12;9.63;;;6.37;;
35462;SDS011;21578;47.892;9.970;2023-02-12T11:35:08;8.90;;;6.13;;
35462;SDS011;21578;47.892;9.970;2023-02-12T11:39:59;9.77;;;6.50;;
35462;SDS011;21578;47.892;9.970;2023-02-12T11:44:47;9.73;;;6.33;;
35462;SDS011;21578;47.892;9.970;2023-02-12T11:49:36;9.33;;;6.20;;
35462;SDS011;21578;47.892;9.970;2023-02-12T11:54:27;9.70;;;6.50;;
35462;SDS011;21578;47.892;9.970;2023-02-12T11:59:32;8.13;;;5.73;;
35462;SDS011;21578;47.892;9.970;2023-02-12T12:04:21;9.23;;;6.40;;
35462;SDS011;21578;47.892;9.970;2023-02-12T12:09:10;8.30;;;6.43;;
35462;SDS011;21578;47.892;9.970;2023-02-12T12:14:03;8.47;;;5.57;;
35462;SDS011;21578;47.892;9.970;2023-02-12T12:18:58;8.90;;;6.20;;
35462;SDS011;21578;47.892;9.970;2023-02-12T12:24:08;8.10;;;5.37;;
35462;SDS011;21578;47.892;9.970;2023-02-12T12:29:03;6.23;;;5.00;;
35462;SDS011;21578;47.892;9.970;2023-02-12T12:33:59;6.93;;;5.13;;
35462;SDS011;21578;47.892;9.970;2023-02-12T12:38:51;7.70;;;5.20;;
35462;SDS011;21578;47.892;9.970;2023-02-12T12:43:49;7.20;;;5.50;;
35462;SDS011;21578;47.892;9.970;2023-02-12T12:49:00;7.93;;;5.10;;
35462;SDS011;21578;47.892;9.970;2023-02-12T12:54:25;7.67;;;5.00;;
35462;SDS011;21578;47.892;9.970;2023-02-12T12:59:32;7.37;;;5.27;;
35462;SDS011;21578;47.892;9.970;2023-02-12T13:04:38;7.07;;;5.20;;
35462;SDS011;21578;47.892;9.970;2023-02-12T13:09:47;6.53;;;4.93;;
35462;SDS011;21578;47.892;9.970;2023-02-12T13:14:44;7.13;;;5.23;;
35462;SDS011;21578;47.892;9.970;2023-02-12T13:19:43;8.23;;;6.13;;
35462;SDS011;21578;47.892;9.970;2023-02-12T13:24:38;8.27;;;5.73;;
35462;SDS011;21578;47.892;9.970;2023-02-12T13:29:33;8.10;;;6.03;;
35462;SDS011;21578;47.892;9.970;2023-02-12T13:34:24;7.53;;;5.90;;
35462;SDS011;21578;47.892;9.970;2023-02-12T13:39:17;10.60;;;7.60;;
35462;SDS011;21578;47.892;9.970;2023-02-12T13:44:13;8.77;;;5.47;;
35462;SDS011;21578;47.892;9.970;2023-02-12T13:49:13;8.10;;;6.27;;
35462;SDS011;21578;47.892;9.970;2023-02-12T13:54:12;5.67;;;4.50;;
35462;SDS011;21578;47.892;9.970;2023-02-12T14:04:29;7.77;;;4.43;;
35462;SDS011;21578;47.892;9.970;2023-02-12T14:09:17;5.87;;;4.23;;
35462;SDS011;21578;47.892;9.970;2023-02-12T14:14:09;6.57;;;4.60;;
35462;SDS011;21578;47.892;9.970;2023-02-12T14:29:40;4.33;;;3.40;;
35462;SDS011;21578;47.892;9.970;2023-02-12T14:40:35;3.23;;;2.93;;
35462;SDS011;21578;47.892;9.970;2023-02-12T14:45:31;3.67;;;2.90;;
35462;SDS011;21578;47.892;9.970;2023-02-12T14:50:24;6.33;;;4.67;;
35462;SDS011;21578;47.892;9.970;2023-02-12T14:55:18;4.00;;;2.57;;
35462;SDS011;21578;47.892;9.970;2023-02-12T15:00:18;2.80;;;2.50;;
35462;SDS011;21578;47.892;9.970;2023-02-12T15:05:12;4.07;;;3.10;;
35462;SDS011;21578;47.892;9.970;2023-02-12T15:10:04;4.37;;;3.10;;
35462;SDS011;21578;47.892;9.970;2023-02-12T15:15:00;4.60;;;3.60;;
35462;SDS011;21578;47.892;9.970;2023-02-12T15:19:53;3.30;;;2.90;;
35462;SDS011;21578;47.892;9.970;2023-02-12T15:24:45;4.77;;;2.97;;
35462;SDS011;21578;47.892;9.970;2023-02-12T15:29:36;3.20;;;2.90;;
35462;SDS011;21578;47.892;9.970;2023-02-12T15:34:29;3.97;;;3.53;;
35462;SDS011;21578;47.892;9.970;2023-02-12T15:39:18;5.57;;;4.27;;
35462;SDS011;21578;47.892;9.970;2023-02-12T15:44:24;5.47;;;4.33;;
35462;SDS011;21578;47.892;9.970;2023-02-12T15:49:18;6.43;;;4.27;;
35462;SDS011;21578;47.892;9.970;2023-02-12T15:54:06;5.17;;;4.30;;
35462;SDS011;21578;47.892;9.970;2023-02-12T15:58:53;6.23;;;5.63;;
35462;SDS011;21578;47.892;9.970;2023-02-12T16:03:43;7.13;;;6.30;;
35462;SDS011;21578;47.892;9.970;2023-02-12T16:08:35;8.53;;;6.53;;
35462;SDS011;21578;47.892;9.970;2023-02-12T16:13:24;8.13;;;6.77;;
35462;SDS011;21578;47.892;9.970;2023-02-12T16:18:22;15.53;;;10.50;;
35462;SDS011;21578;47.892;9.970;2023-02-12T16:23:11;7.90;;;6.83;;
35462;SDS011;21578;47.892;9.970;2023-02-12T16:28:00;10.03;;;7.47;;
35462;SDS011;21578;47.892;9.970;2023-02-12T16:32:49;8.27;;;6.23;;
35462;SDS011;21578;47.892;9.970;2023-02-12T16:37:43;8.80;;;6.87;;
35462;SDS011;21578;47.892;9.970;2023-02-12T16:42:33;7.60;;;6.17;;
35462;SDS011;21578;47.892;9.970;2023-02-12T16:47:21;10.40;;;7.50;;
35462;SDS011;21578;47.892;9.970;2023-02-12T16:52:17;8.63;;;6.30;;
35462;SDS011;21578;47.892;9.970;2023-02-12T16:57:07;6.93;;;5.27;;
35462;SDS011;21578;47.892;9.970;2023-02-12T17:01:58;9.47;;;6.67;;
35462;SDS011;21578;47.892;9.970;2023-02-12T17:06:46;11.97;;;7.83;;
35462;SDS011;21578;47.892;9.970;2023-02-12T17:11:33;6.60;;;5.90;;
35462;SDS011;21578;47.892;9.970;2023-02-12T17:16:20;11.13;;;8.27;;
35462;SDS011;21578;47.892;9.970;2023-02-12T17:21:22;11.17;;;7.27;;
35462;SDS011;21578;47.892;9.970;2023-02-12T17:26:11;10.53;;;7.63;;
35462;SDS011;21578;47.892;9.970;2023-02-12T17:30:58;8.43;;;6.80;;
35462;SDS011;21578;47.892;9.970;2023-02-12T17:35:46;10.07;;;8.03;;
35462;SDS011;21578;47.892;9.970;2023-02-12T17:40:35;10.47;;;7.17;;
35462;SDS011;21578;47.892;9.970;2023-02-12T17:45:22;8.10;;;6.70;;
35462;SDS011;21578;47.892;9.970;2023-02-12T17:50:10;12.50;;;9.23;;
35462;SDS011;21578;47.892;9.970;2023-02-12T17:54:59;11.93;;;8.50;;
35462;SDS011;21578;47.892;9.970;2023-02-12T17:59:47;8.90;;;7.00;;
35462;SDS011;21578;47.892;9.970;2023-02-12T18:04:34;15.77;;;8.93;;
35462;SDS011;21578;47.892;9.970;2023-02-12T18:09:21;11.90;;;8.70;;
35462;SDS011;21578;47.892;9.970;2023-02-12T18:14:09;10.83;;;8.10;;
35462;SDS011;21578;47.892;9.970;2023-02-12T18:18:58;12.10;;;8.57;;
35462;SDS011;21578;47.892;9.970;2023-02-12T18:23:48;10.93;;;8.40;;
35462;SDS011;21578;47.892;9.970;2023-02-12T18:28:35;10.70;;;8.27;;
35462;SDS011;21578;47.892;9.970;2023-02-12T18:33:22;10.23;;;8.30;;
35462;SDS011;21578;47.892;9.970;2023-02-12T18:38:10;10.53;;;8.20;;
35462;SDS011;21578;47.892;9.970;2023-02-12T18:42:57;11.83;;;9.20;;
35462;SDS011;21578;47.892;9.970;2023-02-12T18:47:44;11.97;;;8.53;;
35462;SDS011;21578;47.892;9.970;2023-02-12T18:52:31;11.77;;;8.30;;
35462;SDS011;21578;47.892;9.970;2023-02-12T18:57:20;11.77;;;8.60;;
35462;SDS011;21578;47.892;9.970;2023-02-12T19:02:09;13.40;;;9.50;;
35462;SDS011;21578;47.892;9.970;2023-02-12T19:06:57;10.50;;;8.17;;
35462;SDS011;21578;47.892;9.970;2023-02-12T19:11:45;10.77;;;8.67;;
35462;SDS011;21578;47.892;9.970;2023-02-12T19:16:37;13.30;;;9.13;;
35462;SDS011;21578;47.892;9.970;2023-02-12T19:21:25;14.47;;;9.73;;
35462;SDS011;21578;47.892;9.970;2023-02-12T19:26:13;13.67;;;9.57;;
35462;SDS011;21578;47.892;9.970;2023-02-12T19:31:07;13.30;;;9.40;;
35462;SDS011;21578;47.892;9.970;2023-02-12T19:35:56;13.80;;;9.30;;
35462;SDS011;21578;47.892;9.970;2023-02-12T19:40:43;13.07;;;8.80;;
35462;SDS011;21578;47.892;9.970;2023-02-12T19:45:30;13.63;;;9.83;;
35462;SDS011;21578;47.892;9.970;2023-02-12T19:50:17;14.20;;;9.63;;
35462;SDS011;21578;47.892;9.970;2023-02-12T19:55:06;13.77;;;8.70;;
35462;SDS011;21578;47.892;9.970;2023-02-12T19:59:53;13.60;;;9.63;;
35462;SDS011;21578;47.892;9.970;2023-02-12T20:04:40;14.97;;;9.77;;
35462;SDS011;21578;47.892;9.970;2023-02-12T20:09:27;14.70;;;8.77;;
35462;SDS011;21578;47.892;9.970;2023-02-12T20:14:16;13.93;;;8.87;;
35462;SDS011;21578;47.892;9.970;2023-02-12T20:19:05;14.37;;;8.50;;
35462;SDS011;21578;47.892;9.970;2023-02-12T20:23:54;14.70;;;8.87;;
35462;SDS011;21578;47.892;9.970;2023-02-12T20:28:45;14.90;;;9.37;;
35462;SDS011;21578;47.892;9.970;2023-02-12T20:33:34;15.70;;;8.83;;
35462;SDS011;21578;47.892;9.970;2023-02-12T20:38:25;12.40;;;8.90;;
35462;SDS011;21578;47.892;9.970;2023-02-12T20:43:12;16.57;;;10.43;;
35462;SDS011;21578;47.892;9.970;2023-02-12T20:47:59;13.40;;;8.93;;
35462;SDS011;21578;47.892;9.970;2023-02-12T20:52:48;11.10;;;8.20;;
35462;SDS011;21578;47.892;9.970;2023-02-12T20:57:35;13.23;;;8.40;;
35462;SDS011;21578;47.892;9.970;2023-02-12T21:02:27;14.93;;;8.67;;
35462;SDS011;21578;47.892;9.970;2023-02-12T21:07:14;14.93;;;8.83;;
35462;SDS011;21578;47.892;9.970;2023-02-12T21:12:02;13.93;;;8.40;;
35462;SDS011;21578;47.892;9.970;2023-02-12T21:16:50;14.00;;;9.17;;
35462;SDS011;21578;47.892;9.970;2023-02-12T21:21:38;13.27;;;8.90;;
35462;SDS011;21578;47.892;9.970;2023-02-12T21:26:27;13.37;;;8.70;;
35462;SDS011;21578;47.892;9.970;2023-02-12T21:31:17;13.93;;;9.00;;
35462;SDS011;21578;47.892;9.970;2023-02-12T21:36:06;16.07;;;9.20;;
35462;SDS011;21578;47.892;9.970;2023-02-12T21:40:54;14.33;;;8.93;;
35462;SDS011;21578;47.892;9.970;2023-02-12T21:45:48;16.07;;;10.10;;
35462;SDS011;21578;47.892;9.970;2023-02-12T21:50:37;14.20;;;9.53;;
35462;SDS011;21578;47.892;9.970;2023-02-12T21:55:24;16.27;;;10.03;;
35462;SDS011;21578;47.892;9.970;2023-02-12T22:00:11;16.33;;;10.40;;
35462;SDS011;21578;47.892;9.970;2023-02-12T22:04:59;14.90;;;9.50;;
35462;SDS011;21578;47.892;9.970;2023-02-12T22:09:47;14.50;;;9.10;;
35462;SDS011;21578;47.892;9.970;2023-02-12T22:14:34;16.73;;;10.53;;
35462;SDS011;21578;47.892;9.970;2023-02-12T22:19:21;16.37;;;9.43;;
35462;SDS011;21578;47.892;9.970;2023-02-12T22:24:09;16.67;;;9.90;;
35462;SDS011;21578;47.892;9.970;2023-02-12T22:29:00;18.57;;;10.80;;
35462;SDS011;21578;47.892;9.970;2023-02-12T22:33:49;19.40;;;11.23;;
35462;SDS011;21578;47.892;9.970;2023-02-12T22:38:38;18.73;;;11.03;;
35462;SDS011;21578;47.892;9.970;2023-02-12T22:43:27;18.13;;;11.47;;
35462;SDS011;21578;47.892;9.970;2023-02-12T22:48:15;20.20;;;11.70;;
35462;SDS011;21578;47.892;9.970;2023-02-12T22:53:05;19.57;;;11.40;;
35462;SDS011;21578;47.892;9.970;2023-02-12T22:57:52;18.30;;;11.03;;
35462;SDS011;21578;47.892;9.970;2023-02-12T23:02:39;16.80;;;10.77;;
35462;SDS011;21578;47.892;9.970;2023-02-12T23:07:29;20.13;;;10.90;;
35462;SDS011;21578;47.892;9.970;2023-02-12T23:12:16;18.23;;;10.97;;
35462;SDS011;21578;47.892;9.970;2023-02-12T23:17:03;17.17;;;10.13;;
35462;SDS011;21578;47.892;9.970;2023-02-12T23:21:50;16.27;;;10.50;;
35462;SDS011;21578;47.892;9.970;2023-02-12T23:26:38;19.77;;;10.27;;
35462;SDS011;21578;47.892;9.970;2023-02-12T23:31:25;16.70;;;10.77;;
35462;SDS011;21578;47.892;9.970;2023-02-12T23:36:12;20.80;;;9.77;;
35462;SDS011;21578;47.892;9.970;2023-02-12T23:40:59;18.27;;;9.87;;
35462;SDS011;21578;47.892;9.970;2023-02-12T23:45:47;19.10;;;10.17;;
35462;SDS011;21578;47.892;9.970;2023-02-12T23:50:34;20.13;;;10.23;;
35462;SDS011;21578;47.892;9.970;2023-02-12T23:55:21;14.80;;;9.73;;
